Time;durP1;ratioP1;P1;durP2;ratioP2;P2;SDS_P1;SDS_P2;PMS_P1;PMS_P2;Temp;Humidity;BMP_temperature;BMP_pressure;BME280_temperature;BME280_humidity;BME280_pressure;Samples;Min_cycle;Max_cycle;Signal;HPM_P1;HPM_P2
2023/09/21 00:00:13;;;;;;;;;30.33;25.67;;;;;;;;6489247;39;8940;-55
2023/09/21 00:06:17;;;;;;;;;26.33;25.33;;;;;;;;6489450;46;8931;-58
2023/09/21 00:12:20;;;;;;;;;25.67;22.33;;;;;;;;6490031;46;8881;-57
2023/09/21 00:18:25;;;;;;;;;33.67;31.00;;;;;;;;6490456;39;8915;-58
2023/09/21 00:24:30;;;;;;;;;27.67;27.67;;;;;;;;6490609;39;8885;-58
2023/09/21 00:30:37;;;;;;;;;30.33;27.00;;;;;;;;6489293;39;8875;-57
2023/09/21 00:36:45;;;;;;;;;28.33;26.00;;;;;;;;6490107;46;8896;-58
2023/09/21 00:42:51;;;;;;;;;34.33;29.67;;;;;;;;6489798;39;9043;-58
2023/09/21 00:48:55;;;;;;;;;34.33;30.00;;;;;;;;6489040;46;8821;-57
2023/09/21 00:55:00;;;;;;;;;34.00;30.00;;;;;;;;6488804;31;8915;-58
2023/09/21 01:01:05;;;;;;;;;30.00;27.33;;;;;;;;6488836;39;8948;-55
2023/09/21 01:07:17;;;;;;;;;34.00;30.00;;;;;;;;6490100;39;8847;-57
2023/09/21 01:13:19;;;;;;;;;36.00;31.67;;;;;;;;6488949;46;8924;-57
2023/09/21 01:19:23;;;;;;;;;30.00;27.67;;;;;;;;6489497;46;8938;-56
2023/09/21 01:25:27;;;;;;;;;32.67;27.33;;;;;;;;6489392;39;8853;-55
2023/09/21 01:31:30;;;;;;;;;30.67;27.33;;;;;;;;6488748;46;8847;-55
2023/09/21 01:37:35;;;;;;;;;23.67;23.33;;;;;;;;6488891;46;8865;-57
2023/09/21 01:43:38;;;;;;;;;33.00;31.00;;;;;;;;6489057;46;8871;-57
2023/09/21 01:49:41;;;;;;;;;33.00;29.00;;;;;;;;6487537;46;8877;-57
2023/09/21 01:55:47;;;;;;;;;34.00;30.67;;;;;;;;6488340;46;9035;-57
2023/09/21 02:01:51;;;;;;;;;30.33;30.33;;;;;;;;6488262;46;9065;-56
2023/09/21 02:07:55;;;;;;;;;30.00;28.00;;;;;;;;6489202;46;8903;-58
2023/09/21 02:13:57;;;;;;;;;33.00;32.00;;;;;;;;6489152;31;8932;-56
2023/09/21 02:19:59;;;;;;;;;33.33;29.33;;;;;;;;6489229;31;9118;-58
2023/09/21 02:26:02;;;;;;;;;36.67;33.67;;;;;;;;6488894;46;8869;-56
2023/09/21 02:32:07;;;;;;;;;37.00;32.67;;;;;;;;6488019;46;8886;-57
2023/09/21 02:38:09;;;;;;;;;32.00;31.33;;;;;;;;6488899;46;9053;-58
2023/09/21 02:44:14;;;;;;;;;33.00;33.00;;;;;;;;6488068;39;8922;-55
2023/09/21 02:50:21;;;;;;;;;33.33;30.33;;;;;;;;6487507;39;8934;-58
2023/09/21 02:56:24;;;;;;;;;33.33;33.00;;;;;;;;6488672;39;9009;-58
2023/09/21 03:02:29;;;;;;;;;36.67;34.33;;;;;;;;6489461;31;8850;-57
2023/09/21 03:08:31;;;;;;;;;37.00;34.00;;;;;;;;6488961;39;8913;-57
2023/09/21 03:14:34;;;;;;;;;35.33;33.00;;;;;;;;6487476;39;8849;-56
2023/09/21 03:20:38;;;;;;;;;43.33;37.67;;;;;;;;6489085;39;8899;-57
2023/09/21 03:26:41;;;;;;;;;43.00;37.33;;;;;;;;6487854;39;8841;-57
2023/09/21 03:32:43;;;;;;;;;35.67;33.33;;;;;;;;6487931;31;9353;-57
2023/09/21 03:38:47;;;;;;;;;40.67;35.33;;;;;;;;6487730;39;8918;-57
2023/09/21 03:44:49;;;;;;;;;41.00;37.67;;;;;;;;6488375;39;9523;-57
2023/09/21 03:50:55;;;;;;;;;32.33;29.33;;;;;;;;6487261;31;8837;-59
2023/09/21 03:56:58;;;;;;;;;42.67;37.33;;;;;;;;6486952;39;9078;-56
2023/09/21 04:03:06;;;;;;;;;38.33;34.67;;;;;;;;6473126;39;8962;-57
